Time,TemperatureF,DewpointF,PressureIn,WindDirection,WindDirectionDegrees,WindSpeedMPH,WindSpeedGustMPH,Humidity,HourlyPrecipIn,Conditions,Clouds,dailyrainin,SoftwareType,DateUTC
2013-04-04 00:00:00,35.5,27.4,30.04,WNW,290,0.0,7.0,72,0.00,,,0.00,WUHU216DAVISVP2,2013-04-04 05:00:00,
2013-04-04 00:05:00,35.3,27.2,30.05,WNW,303,0.0,5.0,72,0.00,,,0.00,WUHU216DAVISVP2,2013-04-04 05:05:00,
2013-04-04 00:10:00,35.2,27.1,30.05,WNW,288,0.0,0.0,72,0.00,,,0.00,WUHU216DAVISVP2,2013-04-04 05:10:00,
2013-04-04 00:15:00,34.9,27.2,30.04,NW,311,0.0,0.0,73,0.00,,,0.00,WUHU216DAVISVP2,2013-04-04 05:15:00,
2013-04-04 00:20:00,34.7,27.3,30.05,WNW,293,0.0,3.0,74,0.00,,,0.00,WUHU216DAVISVP2,2013-04-04 05:20:00,
2013-04-04 00:25:00,34.5,27.1,30.05,WNW,299,0.0,5.0,74,0.00,,,0.00,WUHU216DAVISVP2,2013-04-04 05:25:00,
2013-04-04 00:30:00,34.4,27.0,30.05,WNW,295,4.0,6.0,74,0.00,,,0.00,WUHU216DAVISVP2,2013-04-04 05:30:00,
2013-04-04 00:35:00,34.4,27.0,30.06,WNW,296,0.0,6.0,74,0.00,,,0.00,WUHU216DAVISVP2,2013-04-04 05:35:00,
2013-04-04 00:40:00,34.4,27.0,30.06,WNW,296,0.0,2.0,74,0.00,,,0.00,WUHU216DAVISVP2,2013-04-04 05:40:00,
2013-04-04 00:45:00,34.4,27.0,30.06,WNW,296,0.0,0.0,74,0.00,,,0.00,WUHU216DAVISVP2,2013-04-04 05:45:00,
2013-04-04 00:50:00,34.2,27.1,30.05,WNW,296,0.0,0.0,75,0.00,,,0.00,WUHU216DAVISVP2,2013-04-04 05:50:00,
2013-04-04 00:55:00,33.9,26.9,30.05,WNW,296,0.0,0.0,75,0.00,,,0.00,WUHU216DAVISVP2,2013-04-04 05:55:00,
2013-04-04 01:00:00,33.7,26.7,30.05,WNW,296,0.0,0.0,75,0.00,,,0.00,WUHU216DAVISVP2,2013-04-04 06:00:00,
2013-04-04 01:05:00,33.5,26.8,30.06,WNW,296,0.0,0.0,76,0.00,,,0.00,WUHU216DAVISVP2,2013-04-04 06:05:00,
2013-04-04 01:10:00,33.3,26.6,30.06,WNW,296,0.0,0.0,76,0.00,,,0.00,WUHU216DAVISVP2,2013-04-04 06:10:00,
2013-04-04 01:15:00,33.2,26.5,30.06,WNW,296,0.0,3.0,76,0.00,,,0.00,WUHU216DAVISVP2,2013-04-04 06:15:00,
2013-04-04 01:20:00,33.2,26.8,30.06,WNW,297,0.0,3.0,77,0.00,,,0.00,WUHU216DAVISVP2,2013-04-04 06:20:00,
2013-04-04 01:25:00,33.2,26.8,30.06,WNW,297,0.0,0.0,77,0.00,,,0.00,WUHU216DAVISVP2,2013-04-04 06:25:00,
2013-04-04 01:30:00,33.1,26.7,30.07,WNW,297,0.0,0.0,77,0.00,,,0.00,WUHU216DAVISVP2,2013-04-04 06:30:00,
2013-04-04 01:35:00,33.1,26.7,30.07,WNW,296,0.0,0.0,77,0.00,,,0.00,WUHU216DAVISVP2,2013-04-04 06:35:00,
2013-04-04 01:40:00,33.0,26.6,30.07,WNW,296,0.0,0.0,77,0.00,,,0.00,WUHU216DAVISVP2,2013-04-04 06:40:00,
2013-04-04 01:45:00,32.7,26.3,30.07,WNW,297,0.0,0.0,77,0.00,,,0.00,WUHU216DAVISVP2,2013-04-04 06:45:00,
2013-04-04 01:50:00,32.7,26.3,30.07,WNW,296,0.0,0.0,77,0.00,,,0.00,WUHU216DAVISVP2,2013-04-04 06:50:00,
2013-04-04 01:55:00,32.7,26.3,30.08,WNW,297,0.0,0.0,77,0.00,,,0.00,WUHU216DAVISVP2,2013-04-04 06:55:00,
2013-04-04 02:00:00,32.9,26.5,30.08,West,281,0.0,5.0,77,0.00,,,0.00,WUHU216DAVISVP2,2013-04-04 07:00:00,
2013-04-04 02:05:00,33.0,26.6,30.08,WNW,282,0.0,3.0,77,0.00,,,0.00,WUHU216DAVISVP2,2013-04-04 07:05:00,
2013-04-04 02:10:00,33.1,26.7,30.08,WNW,282,0.0,0.0,77,0.00,,,0.00,WUHU216DAVISVP2,2013-04-04 07:10:00,
2013-04-04 02:15:00,33.1,26.7,30.08,WNW,282,0.0,3.0,77,0.00,,,0.00,WUHU216DAVISVP2,2013-04-04 07:15:00,
2013-04-04 02:20:00,33.0,26.6,30.08,West,279,3.0,3.0,77,0.00,,,0.00,WUHU216DAVISVP2,2013-04-04 07:20:00,
2013-04-04 02:25:00,33.0,26.6,30.08,WNW,286,0.0,4.0,77,0.00,,,0.00,WUHU216DAVISVP2,2013-04-04 07:25:00,
2013-04-04 02:30:00,33.0,26.6,30.08,WNW,284,0.0,4.0,77,0.00,,,0.00,WUHU216DAVISVP2,2013-04-04 07:30:00,
2013-04-04 02:35:00,33.0,26.6,30.08,WNW,284,1.0,3.0,77,0.00,,,0.00,WUHU216DAVISVP2,2013-04-04 07:35:00,
2013-04-04 02:40:00,32.9,26.5,30.08,WNW,283,0.0,3.0,77,0.00,,,0.00,WUHU216DAVISVP2,2013-04-04 07:40:00,
2013-04-04 02:45:00,32.9,26.8,30.08,WNW,289,3.0,3.0,78,0.00,,,0.00,WUHU216DAVISVP2,2013-04-04 07:45:00,
2013-04-04 02:50:00,32.9,26.8,30.08,West,269,4.0,4.0,78,0.00,,,0.00,WUHU216DAVISVP2,2013-04-04 07:50:00,
2013-04-04 02:55:00,33.0,26.9,30.08,NW,306,4.0,7.0,78,0.00,,,0.00,WUHU216DAVISVP2,2013-04-04 07:55:00,
2013-04-04 03:00:00,33.1,27.0,30.08,West,269,0.0,7.0,78,0.00,,,0.00,WUHU216DAVISVP2,2013-04-04 08:00:00,
2013-04-04 03:05:00,33.1,27.0,30.08,West,275,0.0,7.0,78,0.00,,,0.00,WUHU216DAVISVP2,2013-04-04 08:05:00,
2013-04-04 03:10:00,32.9,26.8,30.08,WNW,283,0.0,5.0,78,0.00,,,0.00,WUHU216DAVISVP2,2013-04-04 08:10:00,
2013-04-04 03:15:00,32.6,26.5,30.08,NW,309,5.0,5.0,78,0.00,,,0.00,WUHU216DAVISVP2,2013-04-04 08:15:00,
2013-04-04 03:20:00,32.6,26.5,30.08,WNW,284,0.0,7.0,78,0.00,,,0.00,WUHU216DAVISVP2,2013-04-04 08:20:00,
2013-04-04 03:25:00,32.5,26.4,30.08,WNW,283,0.0,7.0,78,0.00,,,0.00,WUHU216DAVISVP2,2013-04-04 08:25:00,
2013-04-04 03:30:00,32.4,26.3,30.09,WNW,282,0.0,6.0,78,0.00,,,0.00,WUHU216DAVISVP2,2013-04-04 08:30:00,
2013-04-04 03:35:00,32.2,26.1,30.09,West,280,0.0,7.0,78,0.00,,,0.00,WUHU216DAVISVP2,2013-04-04 08:35:00,
2013-04-04 03:40:00,32.0,25.9,30.09,West,272,0.0,7.0,78,0.00,,,0.00,WUHU216DAVISVP2,2013-04-04 08:40:00,
2013-04-04 03:45:00,31.9,25.8,30.09,WNW,292,2.0,6.0,78,0.00,,,0.00,WUHU216DAVISVP2,2013-04-04 08:45:00,
2013-04-04 03:50:00,31.9,25.8,30.09,West,271,0.0,6.0,78,0.00,,,0.00,WUHU216DAVISVP2,2013-04-04 08:50:00,
2013-04-04 03:55:00,31.8,25.7,30.09,West,279,0.0,6.0,78,0.00,,,0.00,WUHU216DAVISVP2,2013-04-04 08:55:00,
2013-04-04 04:00:00,31.7,25.6,30.09,West,279,0.0,6.0,78,0.00,,,0.00,WUHU216DAVISVP2,2013-04-04 09:00:00,
2013-04-04 04:05:00,31.5,25.5,30.10,WNW,299,0.0,4.0,78,0.00,,,0.00,WUHU216DAVISVP2,2013-04-04 09:05:00,
2013-04-04 04:10:00,31.5,25.5,30.10,West,265,4.0,7.0,78,0.00,,,0.00,WUHU216DAVISVP2,2013-04-04 09:10:00,
2013-04-04 04:15:00,31.5,25.1,30.10,West,270,0.0,7.0,77,0.00,,,0.00,WUHU216DAVISVP2,2013-04-04 09:15:00,
2013-04-04 04:20:00,31.5,24.8,30.10,West,263,4.0,5.0,76,0.00,,,0.00,WUHU216DAVISVP2,2013-04-04 09:20:00,
2013-04-04 04:25:00,31.3,24.6,30.10,West,265,0.0,5.0,76,0.00,,,0.00,WUHU216DAVISVP2,2013-04-04 09:25:00,
2013-04-04 04:30:00,31.1,24.5,30.10,West,265,0.0,3.0,76,0.00,,,0.00,WUHU216DAVISVP2,2013-04-04 09:30:00,
2013-04-04 04:35:00,30.9,24.3,30.10,West,280,1.0,4.0,76,0.00,,,0.00,WUHU216DAVISVP2,2013-04-04 09:35:00,
2013-04-04 04:40:00,30.9,24.3,30.11,West,280,0.0,4.0,76,0.00,,,0.00,WUHU216DAVISVP2,2013-04-04 09:40:00,
2013-04-04 04:45:00,30.9,24.3,30.11,West,275,0.0,5.0,76,0.00,,,0.00,WUHU216DAVISVP2,2013-04-04 09:45:00,
2013-04-04 04:50:00,30.8,24.2,30.11,West,276,0.0,5.0,76,0.00,,,0.00,WUHU216DAVISVP2,2013-04-04 09:50:00,
2013-04-04 04:55:00,30.7,24.1,30.11,WNW,283,1.0,3.0,76,0.00,,,0.00,WUHU216DAVISVP2,2013-04-04 09:55:00,
2013-04-04 05:00:00,30.6,24.0,30.11,WNW,300,0.0,5.0,76,0.00,,,0.00,WUHU216DAVISVP2,2013-04-04 10:00:00,
2013-04-04 05:05:00,30.4,23.8,30.11,WNW,303,0.0,5.0,76,0.00,,,0.00,WUHU216DAVISVP2,2013-04-04 10:05:00,
2013-04-04 05:10:00,30.3,24.0,30.11,WNW,303,0.0,0.0,77,0.00,,,0.00,WUHU216DAVISVP2,2013-04-04 10:10:00,
2013-04-04 05:15:00,30.1,23.8,30.11,WNW,303,0.0,0.0,77,0.00,,,0.00,WUHU216DAVISVP2,2013-04-04 10:15:00,
2013-04-04 05:20:00,30.0,23.7,30.12,WNW,302,0.0,0.0,77,0.00,,,0.00,WUHU216DAVISVP2,2013-04-04 10:20:00,
2013-04-04 05:25:00,29.8,23.5,30.12,WNW,284,4.0,4.0,77,0.00,,,0.00,WUHU216DAVISVP2,2013-04-04 10:25:00,
2013-04-04 05:30:00,29.8,23.5,30.12,WNW,284,2.0,4.0,77,0.00,,,0.00,WUHU216DAVISVP2,2013-04-04 10:30:00,
2013-04-04 05:35:00,29.7,23.7,30.12,WNW,289,1.0,5.0,78,0.00,,,0.00,WUHU216DAVISVP2,2013-04-04 10:35:00,
2013-04-04 05:40:00,29.8,23.8,30.13,WNW,286,0.0,5.0,78,0.00,,,0.00,WUHU216DAVISVP2,2013-04-04 10:40:00,
2013-04-04 05:45:00,29.7,23.7,30.13,WNW,284,0.0,4.0,78,0.00,,,0.00,WUHU216DAVISVP2,2013-04-04 10:45:00,
2013-04-04 05:50:00,29.6,23.6,30.13,WNW,294,0.0,5.0,78,0.00,,,0.00,WUHU216DAVISVP2,2013-04-04 10:50:00,
2013-04-04 05:55:00,29.5,23.5,30.13,NW,311,0.0,5.0,78,0.00,,,0.00,WUHU216DAVISVP2,2013-04-04 10:55:00,
2013-04-04 06:00:00,29.6,23.6,30.13,WNW,286,0.0,5.0,78,0.00,,,0.00,WUHU216DAVISVP2,2013-04-04 11:00:00,
2013-04-04 06:05:00,29.7,23.4,30.13,West,269,0.0,6.0,77,0.00,,,0.00,WUHU216DAVISVP2,2013-04-04 11:05:00,
2013-04-04 06:10:00,29.7,23.4,30.14,West,281,0.0,6.0,77,0.00,,,0.00,WUHU216DAVISVP2,2013-04-04 11:10:00,
2013-04-04 06:15:00,29.7,23.4,30.14,WNW,292,0.0,3.0,77,0.00,,,0.00,WUHU216DAVISVP2,2013-04-04 11:15:00,
2013-04-04 06:20:00,29.6,23.3,30.14,WNW,303,5.0,5.0,77,0.00,,,0.00,WUHU216DAVISVP2,2013-04-04 11:20:00,
2013-04-04 06:25:00,29.6,23.3,30.14,WNW,303,0.0,5.0,77,0.00,,,0.00,WUHU216DAVISVP2,2013-04-04 11:25:00,
2013-04-04 06:30:00,29.4,23.1,30.14,NW,309,0.0,6.0,77,0.00,,,0.00,WUHU216DAVISVP2,2013-04-04 11:30:00,
2013-04-04 06:35:00,29.3,23.0,30.15,NNW,327,4.0,6.0,77,0.00,,,0.00,WUHU216DAVISVP2,2013-04-04 11:35:00,
2013-04-04 06:40:00,29.2,22.9,30.15,WNW,300,1.0,6.0,77,0.00,,,0.00,WUHU216DAVISVP2,2013-04-04 11:40:00,
2013-04-04 06:45:00,29.2,22.9,30.15,WNW,294,0.0,5.0,77,0.00,,,0.00,WUHU216DAVISVP2,2013-04-04 11:45:00,
2013-04-04 06:50:00,29.1,22.8,30.16,NW,308,0.0,6.0,77,0.00,,,0.00,WUHU216DAVISVP2,2013-04-04 11:50:00,
2013-04-04 06:56:00,29.1,22.8,30.16,WNW,289,3.0,6.0,77,0.00,,,0.00,WUHU216DAVISVP2,2013-04-04 11:56:00,
2013-04-04 07:01:00,29.0,22.7,30.16,WNW,294,0.0,5.0,77,0.00,,,0.00,WUHU216DAVISVP2,2013-04-04 12:01:00,
2013-04-04 07:06:00,29.0,22.7,30.16,WNW,298,0.0,4.0,77,0.00,,,0.00,WUHU216DAVISVP2,2013-04-04 12:06:00,
2013-04-04 07:11:00,28.9,22.6,30.17,WNW,296,1.0,5.0,77,0.00,,,0.00,WUHU216DAVISVP2,2013-04-04 12:11:00,
2013-04-04 07:16:00,28.9,22.6,30.17,WNW,298,0.0,5.0,77,0.00,,,0.00,WUHU216DAVISVP2,2013-04-04 12:16:00,
2013-04-04 07:21:00,28.9,22.6,30.17,WNW,298,0.0,3.0,77,0.00,,,0.00,WUHU216DAVISVP2,2013-04-04 12:21:00,
2013-04-04 07:26:00,28.8,22.5,30.17,NW,306,0.0,9.0,77,0.00,,,0.00,WUHU216DAVISVP2,2013-04-04 12:26:00,
2013-04-04 07:31:00,28.8,22.5,30.17,NW,306,3.0,9.0,77,0.00,,,0.00,WUHU216DAVISVP2,2013-04-04 12:31:00,
2013-04-04 07:37:00,28.8,22.5,30.18,NW,317,0.0,3.0,77,0.00,,,0.00,WUHU216DAVISVP2,2013-04-04 12:37:00,
2013-04-04 07:42:00,28.8,22.5,30.18,NW,309,0.0,5.0,77,0.00,,,0.00,WUHU216DAVISVP2,2013-04-04 12:42:00,
2013-04-04 07:47:00,28.8,22.8,30.18,NNW,344,0.0,5.0,78,0.00,,,0.00,WUHU216DAVISVP2,2013-04-04 12:47:00,
2013-04-04 07:52:00,28.8,22.8,30.18,WNW,288,0.0,4.0,78,0.00,,,0.00,WUHU216DAVISVP2,2013-04-04 12:52:00,
2013-04-04 07:57:00,29.0,22.7,30.18,WNW,292,2.0,6.0,77,0.00,,,0.00,WUHU216DAVISVP2,2013-04-04 12:57:00,
2013-04-04 08:02:00,29.1,22.8,30.19,NW,325,2.0,11.0,77,0.00,,,0.00,WUHU216DAVISVP2,2013-04-04 13:02:00,
2013-04-04 08:07:00,29.2,22.9,30.19,NW,306,2.0,11.0,77,0.00,,,0.00,WUHU216DAVISVP2,2013-04-04 13:07:00,
2013-04-04 08:13:00,29.4,23.1,30.19,NW,306,0.0,6.0,77,0.00,,,0.00,WUHU216DAVISVP2,2013-04-04 13:13:00,
2013-04-04 08:18:00,29.6,23.0,30.19,WNW,301,0.0,4.0,76,0.00,,,0.00,WUHU216DAVISVP2,2013-04-04 13:18:00,
2013-04-04 08:23:00,29.9,23.3,30.19,NW,304,0.0,4.0,76,0.00,,,0.00,WUHU216DAVISVP2,2013-04-04 13:23:00,
2013-04-04 08:28:00,30.0,23.4,30.20,WNW,290,0.0,7.0,76,0.00,,,0.00,WUHU216DAVISVP2,2013-04-04 13:28:00,
2013-04-04 08:33:00,30.1,23.5,30.20,NW,314,1.0,7.0,76,0.00,,,0.00,WUHU216DAVISVP2,2013-04-04 13:33:00,
2013-04-04 08:38:00,30.2,23.3,30.21,WNW,300,4.0,9.0,75,0.00,,,0.00,WUHU216DAVISVP2,2013-04-04 13:38:00,
2013-04-04 08:43:00,30.2,23.3,30.21,West,281,0.0,9.0,75,0.00,,,0.00,WUHU216DAVISVP2,2013-04-04 13:43:00,
2013-04-04 08:48:00,30.4,23.5,30.22,NW,304,0.0,7.0,75,0.00,,,0.00,WUHU216DAVISVP2,2013-04-04 13:48:00,
2013-04-04 08:53:00,30.7,23.8,30.22,WNW,302,0.0,7.0,75,0.00,,,0.00,WUHU216DAVISVP2,2013-04-04 13:53:00,
2013-04-04 08:58:00,30.9,23.6,30.22,NNW,345,2.0,7.0,74,0.00,,,0.00,WUHU216DAVISVP2,2013-04-04 13:58:00,
2013-04-04 09:03:00,31.0,23.7,30.22,West,279,0.0,7.0,74,0.00,,,0.00,WUHU216DAVISVP2,2013-04-04 14:03:00,
2013-04-04 09:08:00,31.3,24.0,30.21,North,355,5.0,7.0,74,0.00,,,0.00,WUHU216DAVISVP2,2013-04-04 14:08:00,
2013-04-04 09:13:00,31.1,23.8,30.22,NW,320,0.0,8.0,74,0.00,,,0.00,WUHU216DAVISVP2,2013-04-04 14:13:00,
2013-04-04 09:18:00,31.0,23.4,30.22,North,350,4.0,9.0,73,0.00,,,0.00,WUHU216DAVISVP2,2013-04-04 14:18:00,
2013-04-04 09:23:00,31.0,23.4,30.21,NNE,29,1.0,9.0,73,0.00,,,0.00,WUHU216DAVISVP2,2013-04-04 14:23:00,
2013-04-04 09:28:00,31.2,23.6,30.21,North,355,2.0,7.0,73,0.00,,,0.00,WUHU216DAVISVP2,2013-04-04 14:28:00,
2013-04-04 09:33:00,31.3,23.4,30.22,NNW,348,2.0,5.0,72,0.00,,,0.00,WUHU216DAVISVP2,2013-04-04 14:33:00,
2013-04-04 09:38:00,31.4,23.5,30.22,North,10,5.0,6.0,72,0.00,,,0.00,WUHU216DAVISVP2,2013-04-04 14:38:00,
2013-04-04 09:43:00,31.4,23.5,30.22,NNW,348,3.0,7.0,72,0.00,,,0.00,WUHU216DAVISVP2,2013-04-04 14:43:00,
2013-04-04 09:48:00,31.5,23.6,30.22,NNE,15,3.0,7.0,72,0.00,,,0.00,WUHU216DAVISVP2,2013-04-04 14:48:00,
2013-04-04 09:53:00,31.6,23.3,30.23,NNE,21,7.0,14.0,71,0.00,,,0.00,WUHU216DAVISVP2,2013-04-04 14:53:00,
2013-04-04 09:58:00,31.6,23.3,30.23,North,355,6.0,14.0,71,0.00,,,0.00,WUHU216DAVISVP2,2013-04-04 14:58:00,
2013-04-04 10:03:00,31.8,23.5,30.23,NNE,27,10.0,13.0,71,0.00,,,0.00,WUHU216DAVISVP2,2013-04-04 15:03:00,
2013-04-04 10:08:00,32.1,23.8,30.23,NNE,15,7.0,13.0,71,0.00,,,0.00,WUHU216DAVISVP2,2013-04-04 15:08:00,
2013-04-04 10:13:00,32.2,23.2,30.23,NE,38,11.0,14.0,69,0.00,,,0.00,WUHU216DAVISVP2,2013-04-04 15:13:00,
2013-04-04 10:18:00,32.1,23.5,30.23,North,360,7.0,14.0,70,0.00,,,0.00,WUHU216DAVISVP2,2013-04-04 15:18:00,
2013-04-04 10:23:00,31.9,23.3,30.23,NNE,17,6.0,17.0,70,0.00,,,0.00,WUHU216DAVISVP2,2013-04-04 15:23:00,
2013-04-04 10:28:00,32.3,23.3,30.23,NNE,24,5.0,17.0,69,0.00,,,0.00,WUHU216DAVISVP2,2013-04-04 15:28:00,
2013-04-04 10:33:00,32.5,23.9,30.23,North,9,7.0,14.0,70,0.00,,,0.00,WUHU216DAVISVP2,2013-04-04 15:33:00,
2013-04-04 10:38:00,32.4,23.4,30.23,North,350,6.0,15.0,69,0.00,,,0.00,WUHU216DAVISVP2,2013-04-04 15:38:00,
2013-04-04 10:43:00,32.4,23.8,30.23,North,355,4.0,17.0,70,0.00,,,0.00,WUHU216DAVISVP2,2013-04-04 15:43:00,
2013-04-04 10:48:00,32.6,23.6,30.23,NNW,340,6.0,18.0,69,0.00,,,0.00,WUHU216DAVISVP2,2013-04-04 15:48:00,
2013-04-04 10:53:00,32.4,23.8,30.24,North,355,4.0,18.0,70,0.00,,,0.00,WUHU216DAVISVP2,2013-04-04 15:53:00,
2013-04-04 10:58:00,32.3,23.7,30.24,NNE,26,4.0,16.0,70,0.00,,,0.00,WUHU216DAVISVP2,2013-04-04 15:58:00,
2013-04-04 11:03:00,32.6,24.0,30.24,NNE,18,4.0,14.0,70,0.00,,,0.00,WUHU216DAVISVP2,2013-04-04 16:03:00,
2013-04-04 11:08:00,32.8,23.8,30.24,NNW,341,5.0,13.0,69,0.00,,,0.00,WUHU216DAVISVP2,2013-04-04 16:08:00,
2013-04-04 11:13:00,32.5,23.5,30.24,North,9,10.0,13.0,69,0.00,,,0.00,WUHU216DAVISVP2,2013-04-04 16:13:00,
2013-04-04 11:18:00,32.6,23.3,30.25,North,360,6.0,13.0,68,0.00,,,0.00,WUHU216DAVISVP2,2013-04-04 16:18:00,
2013-04-04 11:23:00,32.7,23.4,30.25,North,360,6.0,18.0,68,0.00,,,0.00,WUHU216DAVISVP2,2013-04-04 16:23:00,
2013-04-04 11:29:00,32.9,23.2,30.25,NNE,28,7.0,18.0,67,0.00,,,0.00,WUHU216DAVISVP2,2013-04-04 16:29:00,
2013-04-04 11:34:00,33.0,24.0,30.25,NNW,341,2.0,18.0,69,0.00,,,0.00,WUHU216DAVISVP2,2013-04-04 16:34:00,
2013-04-04 11:39:00,33.7,24.7,30.25,NNW,343,5.0,12.0,69,0.00,,,0.00,WUHU216DAVISVP2,2013-04-04 16:39:00,
2013-04-04 11:44:00,33.5,23.4,30.26,NNE,27,3.0,12.0,66,0.00,,,0.00,WUHU216DAVISVP2,2013-04-04 16:44:00,
2013-04-04 11:49:00,33.1,22.7,30.26,NNE,25,6.0,20.0,65,0.00,,,0.00,WUHU216DAVISVP2,2013-04-04 16:49:00,
2013-04-04 11:54:00,32.9,22.9,30.26,North,5,4.0,20.0,66,0.00,,,0.00,WUHU216DAVISVP2,2013-04-04 16:54:00,
2013-04-04 12:00:00,32.9,23.6,30.26,North,9,6.0,17.0,68,0.00,,,0.00,WUHU216DAVISVP2,2013-04-04 17:00:00,
2013-04-04 12:05:00,32.6,22.9,30.27,North,11,0.0,15.0,67,0.00,,,0.00,WUHU216DAVISVP2,2013-04-04 17:05:00,
2013-04-04 12:10:00,33.1,24.1,30.27,North,360,5.0,12.0,69,0.00,,,0.00,WUHU216DAVISVP2,2013-04-04 17:10:00,
2013-04-04 12:15:00,33.1,24.1,30.27,West,260,2.0,12.0,69,0.00,,,0.00,WUHU216DAVISVP2,2013-04-04 17:15:00,
2013-04-04 12:20:00,33.4,24.0,30.27,NNW,348,3.0,12.0,68,0.00,,,0.00,WUHU216DAVISVP2,2013-04-04 17:20:00,
2013-04-04 12:25:00,33.4,24.0,30.27,NNE,13,4.0,7.0,68,0.00,,,0.00,WUHU216DAVISVP2,2013-04-04 17:25:00,
2013-04-04 12:30:00,33.1,22.7,30.27,NNE,26,3.0,15.0,65,0.00,,,0.00,WUHU216DAVISVP2,2013-04-04 17:30:00,
2013-04-04 12:35:00,33.0,22.2,30.27,NNE,19,11.0,21.0,64,0.00,,,0.00,WUHU216DAVISVP2,2013-04-04 17:35:00,
2013-04-04 12:40:00,32.8,22.8,30.27,North,355,6.0,22.0,66,0.00,,,0.00,WUHU216DAVISVP2,2013-04-04 17:40:00,
2013-04-04 12:45:00,33.3,23.6,30.27,NW,323,1.0,22.0,67,0.00,,,0.00,WUHU216DAVISVP2,2013-04-04 17:45:00,
2013-04-04 12:50:00,33.4,23.3,30.27,NNE,17,8.0,21.0,66,0.00,,,0.00,WUHU216DAVISVP2,2013-04-04 17:50:00,
2013-04-04 12:55:00,33.3,23.6,30.27,NNE,22,3.0,14.0,67,0.00,,,0.00,WUHU216DAVISVP2,2013-04-04 17:55:00,
2013-04-04 13:00:00,33.3,23.6,30.27,North,360,2.0,12.0,67,0.00,,,0.00,WUHU216DAVISVP2,2013-04-04 18:00:00,
2013-04-04 13:05:00,33.4,23.3,30.27,North,5,0.0,13.0,66,0.00,,,0.00,WUHU216DAVISVP2,2013-04-04 18:05:00,
2013-04-04 13:10:00,33.4,23.7,30.27,North,11,2.0,13.0,67,0.00,,,0.00,WUHU216DAVISVP2,2013-04-04 18:10:00,
2013-04-04 13:15:00,33.5,23.1,30.27,NNE,25,8.0,12.0,65,0.00,,,0.00,WUHU216DAVISVP2,2013-04-04 18:15:00,
2013-04-04 13:20:00,33.6,23.5,30.27,North,11,9.0,13.0,66,0.00,,,0.00,WUHU216DAVISVP2,2013-04-04 18:20:00,
2013-04-04 13:25:00,33.4,23.7,30.27,North,355,6.0,14.0,67,0.00,,,0.00,WUHU216DAVISVP2,2013-04-04 18:25:00,
2013-04-04 13:30:00,33.3,22.9,30.27,NNE,21,5.0,21.0,65,0.00,,,0.00,WUHU216DAVISVP2,2013-04-04 18:30:00,
2013-04-04 13:36:00,33.2,23.8,30.27,NNE,22,3.0,21.0,68,0.00,,,0.00,WUHU216DAVISVP2,2013-04-04 18:36:00,
2013-04-04 13:41:00,33.0,23.3,30.27,North,350,5.0,17.0,67,0.00,,,0.00,WUHU216DAVISVP2,2013-04-04 18:41:00,
2013-04-04 13:46:00,33.0,23.3,30.27,North,5,3.0,17.0,67,0.00,,,0.00,WUHU216DAVISVP2,2013-04-04 18:46:00,
2013-04-04 13:51:00,33.2,23.5,30.27,NNW,343,6.0,14.0,67,0.00,,,0.00,WUHU216DAVISVP2,2013-04-04 18:51:00,
2013-04-04 13:56:00,33.5,23.8,30.27,North,5,3.0,14.0,67,0.00,,,0.00,WUHU216DAVISVP2,2013-04-04 18:56:00,
2013-04-04 14:01:00,32.8,22.0,30.27,NNE,30,4.0,17.0,64,0.00,,,0.00,WUHU216DAVISVP2,2013-04-04 19:01:00,
2013-04-04 14:06:00,32.6,22.2,30.27,NNE,28,3.0,19.0,65,0.00,,,0.00,WUHU216DAVISVP2,2013-04-04 19:06:00,
2013-04-04 14:11:00,32.6,22.6,30.27,North,355,3.0,19.0,66,0.00,,,0.00,WUHU216DAVISVP2,2013-04-04 19:11:00,
2013-04-04 14:16:00,32.8,22.4,30.27,NNE,19,2.0,18.0,65,0.00,,,0.00,WUHU216DAVISVP2,2013-04-04 19:16:00,
2013-04-04 14:21:00,33.0,22.9,30.27,NNE,29,9.0,18.0,66,0.00,,,0.00,WUHU216DAVISVP2,2013-04-04 19:21:00,
2013-04-04 14:26:00,33.1,23.0,30.27,North,9,0.0,17.0,66,0.00,,,0.00,WUHU216DAVISVP2,2013-04-04 19:26:00,
2013-04-04 14:31:00,33.3,23.6,30.27,North,355,4.0,17.0,67,0.00,,,0.00,WUHU216DAVISVP2,2013-04-04 19:31:00,
2013-04-04 14:36:00,33.5,23.8,30.27,NNE,29,2.0,13.0,67,0.00,,,0.00,WUHU216DAVISVP2,2013-04-04 19:36:00,
2013-04-04 14:41:00,33.4,23.0,30.27,NNE,26,5.0,12.0,65,0.00,,,0.00,WUHU216DAVISVP2,2013-04-04 19:41:00,
2013-04-04 14:46:00,33.2,22.8,30.27,NNE,30,2.0,12.0,65,0.00,,,0.00,WUHU216DAVISVP2,2013-04-04 19:46:00,
2013-04-04 14:51:00,33.1,23.0,30.27,NNE,18,3.0,10.0,66,0.00,,,0.00,WUHU216DAVISVP2,2013-04-04 19:51:00,
2013-04-04 14:56:00,33.4,23.3,30.27,North,360,0.0,13.0,66,0.00,,,0.00,WUHU216DAVISVP2,2013-04-04 19:56:00,
2013-04-04 15:01:00,33.1,22.3,30.27,North,5,3.0,13.0,64,0.00,,,0.00,WUHU216DAVISVP2,2013-04-04 20:01:00,
2013-04-04 15:06:00,32.7,21.9,30.27,NNE,14,0.0,15.0,64,0.00,,,0.00,WUHU216DAVISVP2,2013-04-04 20:06:00,
2013-04-04 15:11:00,33.2,23.1,30.27,NNE,22,7.0,16.0,66,0.00,,,0.00,WUHU216DAVISVP2,2013-04-04 20:11:00,
2013-04-04 15:16:00,32.7,23.0,30.27,NNW,331,0.0,16.0,67,0.00,,,0.00,WUHU216DAVISVP2,2013-04-04 20:16:00,
2013-04-04 15:21:00,33.0,23.7,30.27,North,9,6.0,13.0,68,0.00,,,0.00,WUHU216DAVISVP2,2013-04-04 20:21:00,
2013-04-04 15:26:00,32.8,23.5,30.27,NW,319,0.0,13.0,68,0.00,,,0.00,WUHU216DAVISVP2,2013-04-04 20:26:00,
2013-04-04 15:31:00,32.9,23.9,30.27,NNE,14,0.0,13.0,69,0.00,,,0.00,WUHU216DAVISVP2,2013-04-04 20:31:00,
2013-04-04 15:36:00,33.0,23.7,30.27,NNE,18,5.0,15.0,68,0.00,,,0.00,WUHU216DAVISVP2,2013-04-04 20:36:00,
2013-04-04 15:42:00,32.7,23.4,30.27,North,10,0.0,17.0,68,0.00,,,0.00,WUHU216DAVISVP2,2013-04-04 20:42:00,
2013-04-04 15:47:00,32.4,23.4,30.27,NNW,348,2.0,17.0,69,0.00,,,0.00,WUHU216DAVISVP2,2013-04-04 20:47:00,
2013-04-04 15:52:00,32.0,23.0,30.27,NNE,15,1.0,16.0,69,0.00,,,0.00,WUHU216DAVISVP2,2013-04-04 20:52:00,
2013-04-04 15:57:00,32.0,23.0,30.27,NE,36,6.0,16.0,69,0.00,,,0.00,WUHU216DAVISVP2,2013-04-04 20:57:00,
2013-04-04 16:02:00,32.4,23.4,30.27,NNE,30,9.0,14.0,69,0.00,,,0.00,WUHU216DAVISVP2,2013-04-04 21:02:00,
2013-04-04 16:07:00,32.1,22.8,30.27,NE,44,3.0,14.0,68,0.00,,,0.00,WUHU216DAVISVP2,2013-04-04 21:07:00,
2013-04-04 16:12:00,32.1,23.1,30.27,North,5,2.0,14.0,69,0.00,,,0.00,WUHU216DAVISVP2,2013-04-04 21:12:00,
2013-04-04 16:17:00,31.9,21.5,30.27,North,355,2.0,17.0,65,0.00,,,0.00,WUHU216DAVISVP2,2013-04-04 21:17:00,
2013-04-04 16:22:00,31.9,21.5,30.27,NNE,28,4.0,17.0,65,0.00,,,0.00,WUHU216DAVISVP2,2013-04-04 21:22:00,
2013-04-04 16:27:00,31.9,21.2,30.27,NNE,15,8.0,15.0,64,0.00,,,0.00,WUHU216DAVISVP2,2013-04-04 21:27:00,
2013-04-04 16:32:00,32.1,21.4,30.27,North,5,0.0,15.0,64,0.00,,,0.00,WUHU216DAVISVP2,2013-04-04 21:32:00,
2013-04-04 16:37:00,31.9,21.5,30.27,North,360,3.0,15.0,65,0.00,,,0.00,WUHU216DAVISVP2,2013-04-04 21:37:00,
2013-04-04 16:42:00,31.8,21.8,30.27,NNE,22,0.0,15.0,66,0.00,,,0.00,WUHU216DAVISVP2,2013-04-04 21:42:00,
2013-04-04 16:47:00,31.7,22.4,30.27,NNE,32,4.0,15.0,68,0.00,,,0.00,WUHU216DAVISVP2,2013-04-04 21:47:00,
2013-04-04 16:52:00,31.9,22.6,30.27,North,350,0.0,13.0,68,0.00,,,0.00,WUHU216DAVISVP2,2013-04-04 21:52:00,
2013-04-04 16:57:00,32.4,22.7,30.28,NW,319,0.0,6.0,67,0.00,,,0.00,WUHU216DAVISVP2,2013-04-04 21:57:00,
2013-04-04 17:02:00,32.0,22.3,30.28,NNE,17,3.0,6.0,67,0.00,,,0.00,WUHU216DAVISVP2,2013-04-04 22:02:00,
2013-04-04 17:07:00,31.7,22.1,30.28,NNE,16,1.0,13.0,67,0.00,,,0.00,WUHU216DAVISVP2,2013-04-04 22:07:00,
2013-04-04 17:12:00,31.7,22.4,30.28,North,5,2.0,16.0,68,0.00,,,0.00,WUHU216DAVISVP2,2013-04-04 22:12:00,
2013-04-04 17:17:00,32.1,23.1,30.28,North,360,0.0,16.0,69,0.00,,,0.00,WUHU216DAVISVP2,2013-04-04 22:17:00,
2013-04-04 17:22:00,32.4,23.4,30.28,North,11,0.0,6.0,69,0.00,,,0.00,WUHU216DAVISVP2,2013-04-04 22:22:00,
2013-04-04 17:27:00,32.9,23.6,30.29,WNW,287,4.0,6.0,68,0.00,,,0.00,WUHU216DAVISVP2,2013-04-04 22:27:00,
2013-04-04 17:32:00,33.1,23.0,30.29,NNE,20,0.0,12.0,66,0.00,,,0.00,WUHU216DAVISVP2,2013-04-04 22:32:00,
2013-04-04 17:37:00,32.6,22.2,30.28,North,355,2.0,12.0,65,0.00,,,0.00,WUHU216DAVISVP2,2013-04-04 22:37:00,
2013-04-04 17:42:00,32.4,22.4,30.28,NNW,338,0.0,9.0,66,0.00,,,0.00,WUHU216DAVISVP2,2013-04-04 22:42:00,
2013-04-04 17:47:00,32.3,22.3,30.29,NNW,348,0.0,9.0,66,0.00,,,0.00,WUHU216DAVISVP2,2013-04-04 22:47:00,
2013-04-04 17:52:00,32.2,22.5,30.28,North,355,1.0,9.0,67,0.00,,,0.00,WUHU216DAVISVP2,2013-04-04 22:52:00,
2013-04-04 17:57:00,32.1,22.1,30.28,North,9,2.0,8.0,66,0.00,,,0.00,WUHU216DAVISVP2,2013-04-04 22:57:00,
2013-04-04 18:02:00,31.7,21.3,30.28,NNE,22,1.0,9.0,65,0.00,,,0.00,WUHU216DAVISVP2,2013-04-04 23:02:00,
2013-04-04 18:07:00,31.7,21.7,30.28,NE,38,2.0,9.0,66,0.00,,,0.00,WUHU216DAVISVP2,2013-04-04 23:07:00,
2013-04-04 18:12:00,31.4,21.4,30.28,North,360,6.0,13.0,66,0.00,,,0.00,WUHU216DAVISVP2,2013-04-04 23:12:00,
2013-04-04 18:17:00,31.0,21.0,30.29,North,355,2.0,13.0,66,0.00,,,0.00,WUHU216DAVISVP2,2013-04-04 23:17:00,
2013-04-04 18:22:00,31.0,21.4,30.29,NW,326,0.0,11.0,67,0.00,,,0.00,WUHU216DAVISVP2,2013-04-04 23:22:00,
2013-04-04 18:27:00,31.0,21.0,30.28,North,5,12.0,12.0,66,0.00,,,0.00,WUHU216DAVISVP2,2013-04-04 23:27:00,
2013-04-04 18:32:00,30.7,21.1,30.28,North,360,0.0,12.0,67,0.00,,,0.00,WUHU216DAVISVP2,2013-04-04 23:32:00,
2013-04-04 18:37:00,30.3,21.1,30.28,NNE,18,6.0,14.0,68,0.00,,,0.00,WUHU216DAVISVP2,2013-04-04 23:37:00,
2013-04-04 18:42:00,30.1,20.9,30.28,NNE,24,4.0,16.0,68,0.00,,,0.00,WUHU216DAVISVP2,2013-04-04 23:42:00,
2013-04-04 18:47:00,30.2,21.3,30.28,NNE,26,1.0,16.0,69,0.00,,,0.00,WUHU216DAVISVP2,2013-04-04 23:47:00,
2013-04-04 18:52:00,30.1,21.2,30.28,NNE,20,4.0,11.0,69,0.00,,,0.00,WUHU216DAVISVP2,2013-04-04 23:52:00,
2013-04-04 18:57:00,29.9,21.4,30.28,NNE,14,0.0,9.0,70,0.00,,,0.00,WUHU216DAVISVP2,2013-04-04 23:57:00,
2013-04-04 19:02:00,29.7,21.2,30.28,North,5,1.0,10.0,70,0.00,,,0.00,WUHU216DAVISVP2,2013-04-05 00:02:00,
2013-04-04 19:07:00,29.5,21.0,30.28,NNE,25,2.0,10.0,70,0.00,,,0.00,WUHU216DAVISVP2,2013-04-05 00:07:00,
2013-04-04 19:12:00,29.4,20.5,30.28,North,360,0.0,7.0,69,0.00,,,0.00,WUHU216DAVISVP2,2013-04-05 00:12:00,
2013-04-04 19:17:00,29.4,20.5,30.28,North,360,5.0,5.0,69,0.00,,,0.00,WUHU216DAVISVP2,2013-04-05 00:17:00,
2013-04-04 19:22:00,29.1,20.3,30.28,North,360,0.0,5.0,69,0.00,,,0.00,WUHU216DAVISVP2,2013-04-05 00:22:00,
2013-04-04 19:27:00,29.0,20.5,30.28,NNE,14,3.0,6.0,70,0.00,,,0.00,WUHU216DAVISVP2,2013-04-05 00:27:00,
2013-04-04 19:32:00,28.8,20.3,30.28,North,5,0.0,6.0,70,0.00,,,0.00,WUHU216DAVISVP2,2013-04-05 00:32:00,
2013-04-04 19:37:00,28.6,19.8,30.28,North,360,4.0,7.0,69,0.00,,,0.00,WUHU216DAVISVP2,2013-04-05 00:37:00,
2013-04-04 19:42:00,28.4,19.6,30.28,NNE,21,0.0,9.0,69,0.00,,,0.00,WUHU216DAVISVP2,2013-04-05 00:42:00,
2013-04-04 19:47:00,28.2,19.7,30.28,NW,318,0.0,9.0,70,0.00,,,0.00,WUHU216DAVISVP2,2013-04-05 00:47:00,
2013-04-04 19:52:00,28.1,19.6,30.28,North,11,0.0,0.0,70,0.00,,,0.00,WUHU216DAVISVP2,2013-04-05 00:52:00,
2013-04-04 19:57:00,27.9,19.4,30.28,North,11,0.0,0.0,70,0.00,,,0.00,WUHU216DAVISVP2,2013-04-05 00:57:00,
2013-04-04 20:02:00,27.7,19.6,30.28,NNE,18,0.0,0.0,71,0.00,,,0.00,WUHU216DAVISVP2,2013-04-05 01:02:00,
2013-04-04 20:07:00,27.5,19.4,30.28,North,5,0.0,0.0,71,0.00,,,0.00,WUHU216DAVISVP2,2013-04-05 01:07:00,
2013-04-04 20:12:00,27.4,19.3,30.28,North,355,0.0,0.0,71,0.00,,,0.00,WUHU216DAVISVP2,2013-04-05 01:12:00,
2013-04-04 20:17:00,27.2,19.1,30.28,North,5,0.0,6.0,71,0.00,,,0.00,WUHU216DAVISVP2,2013-04-05 01:17:00,
2013-04-04 20:22:00,27.1,19.0,30.28,North,355,0.0,6.0,71,0.00,,,0.00,WUHU216DAVISVP2,2013-04-05 01:22:00,
2013-04-04 20:27:00,27.0,19.2,30.28,North,5,0.0,2.0,72,0.00,,,0.00,WUHU216DAVISVP2,2013-04-05 01:27:00,
2013-04-04 20:32:00,26.9,19.1,30.28,North,5,0.0,4.0,72,0.00,,,0.00,WUHU216DAVISVP2,2013-04-05 01:32:00,
2013-04-04 20:37:00,26.7,19.3,30.28,North,5,0.0,4.0,73,0.00,,,0.00,WUHU216DAVISVP2,2013-04-05 01:37:00,
2013-04-04 20:42:00,26.7,19.3,30.28,North,360,0.0,0.0,73,0.00,,,0.00,WUHU216DAVISVP2,2013-04-05 01:42:00,
2013-04-04 20:47:00,26.6,19.2,30.28,North,10,0.0,0.0,73,0.00,,,0.00,WUHU216DAVISVP2,2013-04-05 01:47:00,
2013-04-04 20:52:00,26.3,19.2,30.28,North,11,0.0,0.0,74,0.00,,,0.00,WUHU216DAVISVP2,2013-04-05 01:52:00,
2013-04-04 20:57:00,26.2,19.4,30.28,North,11,0.0,0.0,75,0.00,,,0.00,WUHU216DAVISVP2,2013-04-05 01:57:00,
2013-04-04 21:02:00,26.0,19.5,30.28,North,10,0.0,0.0,76,0.00,,,0.00,WUHU216DAVISVP2,2013-04-05 02:02:00,
2013-04-04 21:07:00,25.9,19.4,30.29,NNE,12,0.0,5.0,76,0.00,,,0.00,WUHU216DAVISVP2,2013-04-05 02:07:00,
2013-04-04 21:12:00,25.7,19.2,30.28,North,11,0.0,5.0,76,0.00,,,0.00,WUHU216DAVISVP2,2013-04-05 02:12:00,
2013-04-04 21:17:00,25.6,19.4,30.29,NNE,13,0.0,0.0,77,0.00,,,0.00,WUHU216DAVISVP2,2013-04-05 02:17:00,
2013-04-04 21:22:00,25.5,19.3,30.29,NNE,17,3.0,4.0,77,0.00,,,0.00,WUHU216DAVISVP2,2013-04-05 02:22:00,
2013-04-04 21:27:00,25.4,18.9,30.29,NNE,17,1.0,4.0,76,0.00,,,0.00,WUHU216DAVISVP2,2013-04-05 02:27:00,
2013-04-04 21:32:00,25.3,18.8,30.29,North,11,0.0,4.0,76,0.00,,,0.00,WUHU216DAVISVP2,2013-04-05 02:32:00,
2013-04-04 21:37:00,25.2,18.4,30.29,North,5,0.0,4.0,75,0.00,,,0.00,WUHU216DAVISVP2,2013-04-05 02:37:00,
2013-04-04 21:42:00,25.1,18.3,30.30,NNE,12,0.0,0.0,75,0.00,,,0.00,WUHU216DAVISVP2,2013-04-05 02:42:00,
2013-04-04 21:47:00,25.0,18.5,30.29,NNE,15,3.0,7.0,76,0.00,,,0.00,WUHU216DAVISVP2,2013-04-05 02:47:00,
2013-04-04 21:52:00,24.9,18.4,30.29,North,5,0.0,7.0,76,0.00,,,0.00,WUHU216DAVISVP2,2013-04-05 02:52:00,
2013-04-04 21:57:00,24.8,18.3,30.29,NNE,19,2.0,5.0,76,0.00,,,0.00,WUHU216DAVISVP2,2013-04-05 02:57:00,
2013-04-04 22:02:00,24.7,18.5,30.30,North,360,2.0,5.0,77,0.00,,,0.00,WUHU216DAVISVP2,2013-04-05 03:02:00,
2013-04-04 22:07:00,24.5,18.0,30.30,NNE,22,2.0,5.0,76,0.00,,,0.00,WUHU216DAVISVP2,2013-04-05 03:07:00,
2013-04-04 22:12:00,24.5,18.3,30.30,NNE,15,0.0,5.0,77,0.00,,,0.00,WUHU216DAVISVP2,2013-04-05 03:12:00,
2013-04-04 22:17:00,24.3,18.1,30.30,North,5,0.0,5.0,77,0.00,,,0.00,WUHU216DAVISVP2,2013-04-05 03:17:00,
2013-04-04 22:22:00,24.2,18.3,30.30,North,360,0.0,0.0,78,0.00,,,0.00,WUHU216DAVISVP2,2013-04-05 03:22:00,
2013-04-04 22:27:00,24.1,18.2,30.30,NNE,17,0.0,0.0,78,0.00,,,0.00,WUHU216DAVISVP2,2013-04-05 03:27:00,
2013-04-04 22:32:00,23.9,18.1,30.30,North,11,0.0,0.0,78,0.00,,,0.00,WUHU216DAVISVP2,2013-04-05 03:32:00,
2013-04-04 22:37:00,23.8,18.0,30.30,North,5,4.0,6.0,78,0.00,,,0.00,WUHU216DAVISVP2,2013-04-05 03:37:00,
2013-04-04 22:42:00,23.7,17.9,30.30,North,360,1.0,6.0,78,0.00,,,0.00,WUHU216DAVISVP2,2013-04-05 03:42:00,
2013-04-04 22:47:00,23.7,17.6,30.30,NNE,18,0.0,4.0,77,0.00,,,0.00,WUHU216DAVISVP2,2013-04-05 03:47:00,
2013-04-04 22:52:00,23.6,17.5,30.30,NNE,17,0.0,1.0,77,0.00,,,0.00,WUHU216DAVISVP2,2013-04-05 03:52:00,
2013-04-04 22:57:00,23.5,17.4,30.30,North,360,0.0,0.0,77,0.00,,,0.00,WUHU216DAVISVP2,2013-04-05 03:57:00,
2013-04-04 23:00:00,23.5,17.4,30.30,North,360,0.0,0.0,77,0.00,,,0.00,WUHU216DAVISVP2,2013-04-05 04:00:00,
2013-04-04 23:05:00,23.3,17.2,30.30,North,360,0.0,0.0,77,0.00,,,0.00,WUHU216DAVISVP2,2013-04-05 04:05:00,
2013-04-04 23:10:00,23.3,17.2,30.30,North,10,0.0,0.0,77,0.00,,,0.00,WUHU216DAVISVP2,2013-04-05 04:10:00,
2013-04-04 23:15:00,23.2,17.1,30.30,NNE,13,0.0,0.0,77,0.00,,,0.00,WUHU216DAVISVP2,2013-04-05 04:15:00,
2013-04-04 23:20:00,23.1,16.7,30.30,North,9,3.0,6.0,76,0.00,,,0.00,WUHU216DAVISVP2,2013-04-05 04:20:00,
2013-04-04 23:25:00,23.0,16.6,30.30,NNE,22,0.0,7.0,76,0.00,,,0.00,WUHU216DAVISVP2,2013-04-05 04:25:00,
2013-04-04 23:30:00,22.9,16.5,30.30,NNE,16,0.0,7.0,76,0.00,,,0.00,WUHU216DAVISVP2,2013-04-05 04:30:00,
2013-04-04 23:35:00,22.7,16.3,30.30,NNE,16,0.0,5.0,76,0.00,,,0.00,WUHU216DAVISVP2,2013-04-05 04:35:00,
2013-04-04 23:40:00,22.6,16.2,30.30,NNE,15,0.0,5.0,76,0.00,,,0.00,WUHU216DAVISVP2,2013-04-05 04:40:00,
2013-04-04 23:45:00,22.5,16.1,30.31,NNE,16,0.0,0.0,76,0.00,,,0.00,WUHU216DAVISVP2,2013-04-05 04:45:00,
2013-04-04 23:50:00,22.4,16.0,30.31,NNE,15,0.0,0.0,76,0.00,,,0.00,WUHU216DAVISVP2,2013-04-05 04:50:00,
2013-04-04 23:57:00,22.3,15.9,30.31,NNE,16,0.0,0.0,76,0.00,,,0.00,WUHU216DAVISVP2,2013-04-05 04:57:00,